sensor_id;sensor_type;location;lat;lon;timestamp;pressure;altitude;pressure_sealevel;temperature;humidity
61488;BME280;47351;53.326;-6.298;2022-08-01T00:01:35;101639.77;;;15.38;70.28
61488;BME280;47351;53.326;-6.298;2022-08-01T00:04:16;101636.48;;;15.33;70.26
61488;BME280;47351;53.326;-6.298;2022-08-01T00:06:53;101641.02;;;15.29;70.24
61488;BME280;47351;53.326;-6.298;2022-08-01T00:09:24;101645.73;;;15.25;70.39
61488;BME280;47351;53.326;-6.298;2022-08-01T00:11:56;101648.91;;;15.23;70.67
61488;BME280;47351;53.326;-6.298;2022-08-01T00:14:29;101648.48;;;15.20;70.49
61488;BME280;47351;53.326;-6.298;2022-08-01T00:17:04;101647.95;;;15.17;70.61
61488;BME280;47351;53.326;-6.298;2022-08-01T00:19:39;101645.14;;;15.13;70.66
61488;BME280;47351;53.326;-6.298;2022-08-01T00:22:13;101641.94;;;15.11;70.95
61488;BME280;47351;53.326;-6.298;2022-08-01T00:24:53;101643.27;;;15.08;71.01
61488;BME280;47351;53.326;-6.298;2022-08-01T00:27:38;101638.15;;;15.06;70.86
61488;BME280;47351;53.326;-6.298;2022-08-01T00:30:36;101634.09;;;15.03;70.85
61488;BME280;47351;53.326;-6.298;2022-08-01T00:33:10;101635.77;;;15.03;71.16
61488;BME280;47351;53.326;-6.298;2022-08-01T00:35:44;101637.56;;;15.01;71.21
61488;BME280;47351;53.326;-6.298;2022-08-01T00:38:16;101636.58;;;14.99;70.87
61488;BME280;47351;53.326;-6.298;2022-08-01T00:40:47;101629.39;;;14.95;71.11
61488;BME280;47351;53.326;-6.298;2022-08-01T00:43:39;101628.95;;;14.93;71.14
61488;BME280;47351;53.326;-6.298;2022-08-01T00:46:11;101634.15;;;14.90;71.16
61488;BME280;47351;53.326;-6.298;2022-08-01T00:48:56;101637.85;;;14.85;70.87
61488;BME280;47351;53.326;-6.298;2022-08-01T00:51:47;101633.80;;;14.82;71.29
61488;BME280;47351;53.326;-6.298;2022-08-01T00:54:19;101629.48;;;14.79;71.29
61488;BME280;47351;53.326;-6.298;2022-08-01T00:57:02;101634.95;;;14.77;71.27
61488;BME280;47351;53.326;-6.298;2022-08-01T00:59:44;101636.41;;;14.73;71.36
61488;BME280;47351;53.326;-6.298;2022-08-01T01:02:27;101632.50;;;14.71;71.60
61488;BME280;47351;53.326;-6.298;2022-08-01T01:05:19;101631.65;;;14.67;71.72
61488;BME280;47351;53.326;-6.298;2022-08-01T01:07:59;101630.63;;;14.65;71.80
61488;BME280;47351;53.326;-6.298;2022-08-01T01:10:42;101635.20;;;14.63;71.69
61488;BME280;47351;53.326;-6.298;2022-08-01T01:13:23;101627.58;;;14.60;71.84
61488;BME280;47351;53.326;-6.298;2022-08-01T01:16:42;101630.75;;;14.57;72.07
61488;BME280;47351;53.326;-6.298;2022-08-01T01:19:23;101629.85;;;14.55;72.14
61488;BME280;47351;53.326;-6.298;2022-08-01T01:22:25;101628.09;;;14.53;72.15
61488;BME280;47351;53.326;-6.298;2022-08-01T01:25:23;101628.95;;;14.52;72.39
61488;BME280;47351;53.326;-6.298;2022-08-01T01:28:08;101623.87;;;14.52;72.71
61488;BME280;47351;53.326;-6.298;2022-08-01T01:30:43;101623.23;;;14.52;72.76
61488;BME280;47351;53.326;-6.298;2022-08-01T01:33:37;101623.20;;;14.50;72.70
61488;BME280;47351;53.326;-6.298;2022-08-01T01:36:14;101616.05;;;14.48;72.53
61488;BME280;47351;53.326;-6.298;2022-08-01T01:38:51;101612.59;;;14.45;72.76
61488;BME280;47351;53.326;-6.298;2022-08-01T01:41:28;101611.67;;;14.42;72.90
61488;BME280;47351;53.326;-6.298;2022-08-01T01:44:12;101609.46;;;14.39;73.09
61488;BME280;47351;53.326;-6.298;2022-08-01T01:46:54;101609.52;;;14.35;73.05
61488;BME280;47351;53.326;-6.298;2022-08-01T01:49:35;101607.73;;;14.31;73.16
61488;BME280;47351;53.326;-6.298;2022-08-01T01:52:18;101604.38;;;14.29;73.29
61488;BME280;47351;53.326;-6.298;2022-08-01T01:54:51;101602.44;;;14.27;73.30
61488;BME280;47351;53.326;-6.298;2022-08-01T01:57:26;101604.45;;;14.25;73.60
61488;BME280;47351;53.326;-6.298;2022-08-01T02:00:00;101604.37;;;14.24;73.73
61488;BME280;47351;53.326;-6.298;2022-08-01T02:02:34;101602.25;;;14.22;73.62
61488;BME280;47351;53.326;-6.298;2022-08-01T02:05:10;101604.02;;;14.21;73.76
61488;BME280;47351;53.326;-6.298;2022-08-01T02:07:43;101606.45;;;14.20;73.92
61488;BME280;47351;53.326;-6.298;2022-08-01T02:10:53;101607.74;;;14.18;73.78
61488;BME280;47351;53.326;-6.298;2022-08-01T02:13:57;101607.19;;;14.14;73.80
61488;BME280;47351;53.326;-6.298;2022-08-01T02:16:41;101605.27;;;14.12;74.06
61488;BME280;47351;53.326;-6.298;2022-08-01T02:19:14;101603.02;;;14.11;74.02
61488;BME280;47351;53.326;-6.298;2022-08-01T02:21:59;101600.33;;;14.09;74.16
61488;BME280;47351;53.326;-6.298;2022-08-01T02:24:36;101598.30;;;14.08;74.26
61488;BME280;47351;53.326;-6.298;2022-08-01T02:27:33;101597.25;;;14.08;74.19
61488;BME280;47351;53.326;-6.298;2022-08-01T02:30:26;101594.48;;;14.07;74.26
61488;BME280;47351;53.326;-6.298;2022-08-01T02:33:08;101591.63;;;14.07;74.33
61488;BME280;47351;53.326;-6.298;2022-08-01T02:35:48;101583.84;;;14.06;74.49
61488;BME280;47351;53.326;-6.298;2022-08-01T02:38:44;101584.66;;;14.06;74.76
61488;BME280;47351;53.326;-6.298;2022-08-01T02:41:20;101586.98;;;14.07;74.66
61488;BME280;47351;53.326;-6.298;2022-08-01T02:44:03;101583.18;;;14.07;74.65
61488;BME280;47351;53.326;-6.298;2022-08-01T02:46:45;101581.56;;;14.07;74.69
61488;BME280;47351;53.326;-6.298;2022-08-01T02:49:19;101583.36;;;14.07;74.84
61488;BME280;47351;53.326;-6.298;2022-08-01T02:52:21;101583.11;;;14.06;74.76
61488;BME280;47351;53.326;-6.298;2022-08-01T02:54:56;101582.98;;;14.04;74.74
61488;BME280;47351;53.326;-6.298;2022-08-01T02:57:52;101587.33;;;14.02;74.78
61488;BME280;47351;53.326;-6.298;2022-08-01T03:00:31;101583.52;;;14.00;74.97
61488;BME280;47351;53.326;-6.298;2022-08-01T03:03:08;101575.85;;;14.00;75.29
61488;BME280;47351;53.326;-6.298;2022-08-01T03:05:41;101571.98;;;14.01;75.32
61488;BME280;47351;53.326;-6.298;2022-08-01T03:08:15;101568.17;;;14.03;75.49
61488;BME280;47351;53.326;-6.298;2022-08-01T03:10:48;101564.70;;;14.04;75.77
61488;BME280;47351;53.326;-6.298;2022-08-01T03:13:23;101570.77;;;14.04;75.76
61488;BME280;47351;53.326;-6.298;2022-08-01T03:15:57;101576.00;;;14.00;75.45
61488;BME280;47351;53.326;-6.298;2022-08-01T03:18:52;101581.77;;;13.97;75.38
61488;BME280;47351;53.326;-6.298;2022-08-01T03:21:31;101586.70;;;13.94;75.54
61488;BME280;47351;53.326;-6.298;2022-08-01T03:24:17;101582.88;;;13.91;75.74
61488;BME280;47351;53.326;-6.298;2022-08-01T03:26:53;101575.64;;;13.88;75.77
61488;BME280;47351;53.326;-6.298;2022-08-01T03:29:28;101573.09;;;13.86;76.12
61488;BME280;47351;53.326;-6.298;2022-08-01T03:32:04;101566.80;;;13.85;75.98
61488;BME280;47351;53.326;-6.298;2022-08-01T03:34:37;101564.09;;;13.83;76.05
61488;BME280;47351;53.326;-6.298;2022-08-01T03:37:29;101569.34;;;13.81;76.30
61488;BME280;47351;53.326;-6.298;2022-08-01T03:40:30;101563.66;;;13.79;76.29
61488;BME280;47351;53.326;-6.298;2022-08-01T03:43:13;101570.40;;;13.76;76.36
61488;BME280;47351;53.326;-6.298;2022-08-01T03:46:02;101572.77;;;13.69;76.00
61488;BME280;47351;53.326;-6.298;2022-08-01T03:48:39;101574.41;;;13.62;75.95
61488;BME280;47351;53.326;-6.298;2022-08-01T03:51:31;101574.36;;;13.55;75.97
61488;BME280;47351;53.326;-6.298;2022-08-01T03:54:04;101571.89;;;13.53;76.61
61488;BME280;47351;53.326;-6.298;2022-08-01T03:56:43;101567.00;;;13.52;76.95
61488;BME280;47351;53.326;-6.298;2022-08-01T03:59:21;101566.11;;;13.50;76.91
61488;BME280;47351;53.326;-6.298;2022-08-01T04:01:59;101570.19;;;13.49;77.06
61488;BME280;47351;53.326;-6.298;2022-08-01T04:04:31;101566.34;;;13.46;77.12
61488;BME280;47351;53.326;-6.298;2022-08-01T04:07:05;101566.19;;;13.42;76.89
61488;BME280;47351;53.326;-6.298;2022-08-01T04:09:52;101560.27;;;13.38;77.23
61488;BME280;47351;53.326;-6.298;2022-08-01T04:12:23;101560.75;;;13.35;77.20
61488;BME280;47351;53.326;-6.298;2022-08-01T04:15:00;101553.62;;;13.31;77.12
61488;BME280;47351;53.326;-6.298;2022-08-01T04:17:53;101555.10;;;13.28;77.17
61488;BME280;47351;53.326;-6.298;2022-08-01T04:20:25;101555.71;;;13.25;77.50
61488;BME280;47351;53.326;-6.298;2022-08-01T04:23:39;101559.68;;;13.21;77.66
61488;BME280;47351;53.326;-6.298;2022-08-01T04:26:14;101563.07;;;13.16;77.56
61488;BME280;47351;53.326;-6.298;2022-08-01T04:29:10;101560.71;;;13.12;77.89
61488;BME280;47351;53.326;-6.298;2022-08-01T04:32:00;101558.44;;;13.10;78.18
61488;BME280;47351;53.326;-6.298;2022-08-01T04:35:33;101558.92;;;13.07;78.18
61488;BME280;47351;53.326;-6.298;2022-08-01T04:38:27;101556.09;;;13.03;78.18
61488;BME280;47351;53.326;-6.298;2022-08-01T04:41:41;101547.73;;;13.01;78.32
61488;BME280;47351;53.326;-6.298;2022-08-01T04:44:36;101540.42;;;12.98;78.46
61488;BME280;47351;53.326;-6.298;2022-08-01T04:47:08;101537.69;;;12.97;78.76
61488;BME280;47351;53.326;-6.298;2022-08-01T04:49:45;101533.73;;;12.95;78.85
61488;BME280;47351;53.326;-6.298;2022-08-01T04:52:40;101528.95;;;12.93;78.85
61488;BME280;47351;53.326;-6.298;2022-08-01T04:55:16;101528.55;;;12.90;78.98
61488;BME280;47351;53.326;-6.298;2022-08-01T04:57:54;101525.49;;;12.86;78.78
61488;BME280;47351;53.326;-6.298;2022-08-01T05:00:30;101528.52;;;12.85;78.85
61488;BME280;47351;53.326;-6.298;2022-08-01T05:03:15;101527.61;;;12.80;78.68
61488;BME280;47351;53.326;-6.298;2022-08-01T05:05:50;101535.58;;;12.77;78.87
61488;BME280;47351;53.326;-6.298;2022-08-01T05:08:34;101529.67;;;12.77;79.22
61488;BME280;47351;53.326;-6.298;2022-08-01T05:11:17;101529.17;;;12.78;79.56
61488;BME280;47351;53.326;-6.298;2022-08-01T05:13:53;101529.41;;;12.78;79.41
61488;BME280;47351;53.326;-6.298;2022-08-01T05:16:29;101530.91;;;12.77;79.50
61488;BME280;47351;53.326;-6.298;2022-08-01T05:19:25;101540.77;;;12.75;79.42
61488;BME280;47351;53.326;-6.298;2022-08-01T05:22:00;101545.47;;;12.75;79.46
61488;BME280;47351;53.326;-6.298;2022-08-01T05:24:36;101542.81;;;12.76;79.90
61488;BME280;47351;53.326;-6.298;2022-08-01T05:27:11;101543.67;;;12.78;80.10
61488;BME280;47351;53.326;-6.298;2022-08-01T05:30:10;101553.73;;;12.80;80.09
61488;BME280;47351;53.326;-6.298;2022-08-01T05:32:48;101548.30;;;12.80;80.13
61488;BME280;47351;53.326;-6.298;2022-08-01T05:35:28;101551.48;;;12.81;79.90
61488;BME280;47351;53.326;-6.298;2022-08-01T05:38:36;101551.27;;;12.81;80.25
61488;BME280;47351;53.326;-6.298;2022-08-01T05:41:11;101549.60;;;12.84;80.56
61488;BME280;47351;53.326;-6.298;2022-08-01T05:43:54;101539.37;;;12.86;80.61
61488;BME280;47351;53.326;-6.298;2022-08-01T05:46:26;101543.21;;;12.87;80.19
61488;BME280;47351;53.326;-6.298;2022-08-01T05:49:15;101532.38;;;12.89;80.65
61488;BME280;47351;53.326;-6.298;2022-08-01T05:51:50;101527.35;;;12.91;80.63
61488;BME280;47351;53.326;-6.298;2022-08-01T05:54:33;101531.31;;;12.94;80.63
61488;BME280;47351;53.326;-6.298;2022-08-01T05:57:29;101531.02;;;12.99;80.72
61488;BME280;47351;53.326;-6.298;2022-08-01T06:00:25;101533.75;;;13.03;80.43
61488;BME280;47351;53.326;-6.298;2022-08-01T06:03:08;101523.06;;;13.07;80.64
61488;BME280;47351;53.326;-6.298;2022-08-01T06:05:43;101518.44;;;13.12;80.84
61488;BME280;47351;53.326;-6.298;2022-08-01T06:08:24;101523.42;;;13.18;80.91
61488;BME280;47351;53.326;-6.298;2022-08-01T06:10:58;101520.10;;;13.22;80.91
61488;BME280;47351;53.326;-6.298;2022-08-01T06:13:38;101517.61;;;13.26;80.72
61488;BME280;47351;53.326;-6.298;2022-08-01T06:16:28;101510.84;;;13.29;80.70
61488;BME280;47351;53.326;-6.298;2022-08-01T06:19:00;101505.98;;;13.32;80.66
61488;BME280;47351;53.326;-6.298;2022-08-01T06:21:37;101508.13;;;13.34;80.63
61488;BME280;47351;53.326;-6.298;2022-08-01T06:24:12;101511.23;;;13.36;80.68
61488;BME280;47351;53.326;-6.298;2022-08-01T06:26:46;101512.27;;;13.39;80.60
61488;BME280;47351;53.326;-6.298;2022-08-01T06:29:18;101513.84;;;13.43;80.98
61488;BME280;47351;53.326;-6.298;2022-08-01T06:31:50;101512.82;;;13.46;80.96
61488;BME280;47351;53.326;-6.298;2022-08-01T06:34:32;101506.83;;;13.51;81.09
61488;BME280;47351;53.326;-6.298;2022-08-01T06:37:15;101504.11;;;13.56;81.20
61488;BME280;47351;53.326;-6.298;2022-08-01T06:39:46;101506.36;;;13.61;81.12
61488;BME280;47351;53.326;-6.298;2022-08-01T06:42:19;101501.84;;;13.64;80.94
61488;BME280;47351;53.326;-6.298;2022-08-01T06:44:51;101496.46;;;13.69;81.08
61488;BME280;47351;53.326;-6.298;2022-08-01T06:47:23;101496.02;;;13.75;81.14
61488;BME280;47351;53.326;-6.298;2022-08-01T06:50:15;101496.46;;;13.83;81.14
61488;BME280;47351;53.326;-6.298;2022-08-01T06:52:57;101495.77;;;13.90;81.08
61488;BME280;47351;53.326;-6.298;2022-08-01T06:55:28;101493.34;;;13.98;81.16
61488;BME280;47351;53.326;-6.298;2022-08-01T06:58:08;101489.81;;;14.07;81.49
61488;BME280;47351;53.326;-6.298;2022-08-01T07:00:39;101492.04;;;14.15;81.23
61488;BME280;47351;53.326;-6.298;2022-08-01T07:03:22;101491.25;;;14.22;80.95
61488;BME280;47351;53.326;-6.298;2022-08-01T07:06:14;101498.35;;;14.30;80.74
61488;BME280;47351;53.326;-6.298;2022-08-01T07:08:47;101502.02;;;14.38;80.65
61488;BME280;47351;53.326;-6.298;2022-08-01T07:11:29;101500.19;;;14.47;80.49
61488;BME280;47351;53.326;-6.298;2022-08-01T07:14:03;101504.52;;;14.56;80.49
61488;BME280;47351;53.326;-6.298;2022-08-01T07:16:36;101495.45;;;14.69;80.42
61488;BME280;47351;53.326;-6.298;2022-08-01T07:19:10;101501.16;;;14.84;80.35
61488;BME280;47351;53.326;-6.298;2022-08-01T07:21:42;101494.64;;;14.96;80.24
61488;BME280;47351;53.326;-6.298;2022-08-01T07:24:42;101499.06;;;15.10;79.85
61488;BME280;47351;53.326;-6.298;2022-08-01T07:27:15;101496.20;;;15.21;79.57
61488;BME280;47351;53.326;-6.298;2022-08-01T07:30:09;101490.05;;;15.30;79.19
61488;BME280;47351;53.326;-6.298;2022-08-01T07:32:40;101491.91;;;15.36;78.99
61488;BME280;47351;53.326;-6.298;2022-08-01T07:35:12;101494.92;;;15.41;78.78
61488;BME280;47351;53.326;-6.298;2022-08-01T07:37:46;101498.30;;;15.48;78.63
61488;BME280;47351;53.326;-6.298;2022-08-01T07:40:28;101500.30;;;15.56;78.43
61488;BME280;47351;53.326;-6.298;2022-08-01T07:43:00;101500.02;;;15.61;78.25
61488;BME280;47351;53.326;-6.298;2022-08-01T07:45:44;101501.64;;;15.78;78.12
61488;BME280;47351;53.326;-6.298;2022-08-01T07:48:18;101500.76;;;15.98;77.88
61488;BME280;47351;53.326;-6.298;2022-08-01T07:50:54;101498.45;;;16.25;77.46
61488;BME280;47351;53.326;-6.298;2022-08-01T07:53:25;101493.83;;;16.68;76.33
61488;BME280;47351;53.326;-6.298;2022-08-01T07:55:57;101492.77;;;17.20;74.88
61488;BME280;47351;53.326;-6.298;2022-08-01T07:58:30;101487.98;;;17.90;73.35
61488;BME280;47351;53.326;-6.298;2022-08-01T08:01:01;101478.98;;;18.67;72.14
61488;BME280;47351;53.326;-6.298;2022-08-01T08:03:32;101476.30;;;19.49;70.87
61488;BME280;47351;53.326;-6.298;2022-08-01T08:06:05;101470.09;;;20.39;69.52
61488;BME280;47351;53.326;-6.298;2022-08-01T08:08:37;101455.73;;;21.30;67.87
61488;BME280;47351;53.326;-6.298;2022-08-01T08:11:08;101453.07;;;22.17;65.88
61488;BME280;47351;53.326;-6.298;2022-08-01T08:13:39;101452.74;;;23.05;64.24
61488;BME280;47351;53.326;-6.298;2022-08-01T08:16:11;101457.18;;;23.93;62.11
61488;BME280;47351;53.326;-6.298;2022-08-01T08:18:42;101449.80;;;24.76;59.74
61488;BME280;47351;53.326;-6.298;2022-08-01T08:21:13;101451.70;;;25.60;57.77
61488;BME280;47351;53.326;-6.298;2022-08-01T08:23:45;101450.05;;;26.23;55.91
61488;BME280;47351;53.326;-6.298;2022-08-01T08:26:33;101444.92;;;26.22;55.15
61488;BME280;47351;53.326;-6.298;2022-08-01T08:29:05;101438.39;;;26.92;53.77
61488;BME280;47351;53.326;-6.298;2022-08-01T08:31:36;101436.91;;;28.01;51.66
61488;BME280;47351;53.326;-6.298;2022-08-01T08:34:21;101429.97;;;28.34;50.53
61488;BME280;47351;53.326;-6.298;2022-08-01T08:36:54;101422.73;;;28.45;49.44
61488;BME280;47351;53.326;-6.298;2022-08-01T08:39:27;101415.06;;;28.99;48.22
61488;BME280;47351;53.326;-6.298;2022-08-01T08:42:11;101416.55;;;29.93;46.61
61488;BME280;47351;53.326;-6.298;2022-08-01T08:44:43;101412.27;;;30.67;44.67
61488;BME280;47351;53.326;-6.298;2022-08-01T08:47:15;101411.98;;;31.43;43.61
61488;BME280;47351;53.326;-6.298;2022-08-01T08:49:50;101418.35;;;32.17;42.06
61488;BME280;47351;53.326;-6.298;2022-08-01T08:52:23;101413.37;;;31.96;41.93
61488;BME280;47351;53.326;-6.298;2022-08-01T08:54:56;101406.91;;;31.74;41.96
61488;BME280;47351;53.326;-6.298;2022-08-01T08:57:29;101400.55;;;31.38;41.68
61488;BME280;47351;53.326;-6.298;2022-08-01T09:00:01;101399.48;;;31.63;40.77
61488;BME280;47351;53.326;-6.298;2022-08-01T09:02:33;101394.29;;;32.36;39.56
61488;BME280;47351;53.326;-6.298;2022-08-01T09:05:05;101391.27;;;33.02;38.59
61488;BME280;47351;53.326;-6.298;2022-08-01T09:07:37;101395.38;;;33.78;37.48
61488;BME280;47351;53.326;-6.298;2022-08-01T09:10:09;101392.07;;;34.47;36.26
61488;BME280;47351;53.326;-6.298;2022-08-01T09:12:54;101390.35;;;34.74;35.21
61488;BME280;47351;53.326;-6.298;2022-08-01T09:15:42;101392.42;;;33.45;35.96
61488;BME280;47351;53.326;-6.298;2022-08-01T09:18:31;101395.86;;;32.32;37.08
61488;BME280;47351;53.326;-6.298;2022-08-01T09:21:16;101392.44;;;32.13;36.81
61488;BME280;47351;53.326;-6.298;2022-08-01T09:23:50;101393.80;;;32.51;36.61
61488;BME280;47351;53.326;-6.298;2022-08-01T09:26:31;101387.51;;;32.93;35.92
61488;BME280;47351;53.326;-6.298;2022-08-01T09:29:05;101387.96;;;32.87;35.56
61488;BME280;47351;53.326;-6.298;2022-08-01T09:31:43;101377.12;;;33.14;35.55
61488;BME280;47351;53.326;-6.298;2022-08-01T09:34:23;101372.95;;;33.26;35.10
61488;BME280;47351;53.326;-6.298;2022-08-01T09:36:56;101371.66;;;33.36;34.40
61488;BME280;47351;53.326;-6.298;2022-08-01T09:39:32;101360.80;;;34.00;33.68
61488;BME280;47351;53.326;-6.298;2022-08-01T09:42:20;101358.05;;;34.57;33.24
61488;BME280;47351;53.326;-6.298;2022-08-01T09:44:58;101356.79;;;34.73;33.47
61488;BME280;47351;53.326;-6.298;2022-08-01T09:47:39;101353.23;;;35.37;32.29
61488;BME280;47351;53.326;-6.298;2022-08-01T09:50:13;101350.24;;;36.16;31.63
61488;BME280;47351;53.326;-6.298;2022-08-01T09:52:54;101344.89;;;36.74;30.18
61488;BME280;47351;53.326;-6.298;2022-08-01T09:55:25;101343.83;;;36.83;30.27
61488;BME280;47351;53.326;-6.298;2022-08-01T09:57:57;101344.90;;;37.06;29.69
61488;BME280;47351;53.326;-6.298;2022-08-01T10:00:41;101348.95;;;36.65;29.10
61488;BME280;47351;53.326;-6.298;2022-08-01T10:03:25;101340.41;;;36.22;28.69
61488;BME280;47351;53.326;-6.298;2022-08-01T10:05:57;101334.30;;;35.32;29.02
61488;BME280;47351;53.326;-6.298;2022-08-01T10:08:28;101332.05;;;34.08;29.47
61488;BME280;47351;53.326;-6.298;2022-08-01T10:11:16;101331.34;;;32.92;30.24
61488;BME280;47351;53.326;-6.298;2022-08-01T10:13:48;101338.05;;;31.98;31.23
61488;BME280;47351;53.326;-6.298;2022-08-01T10:16:20;101335.02;;;31.25;32.03
61488;BME280;47351;53.326;-6.298;2022-08-01T10:18:52;101330.73;;;30.60;32.97
61488;BME280;47351;53.326;-6.298;2022-08-01T10:21:27;101328.86;;;30.31;32.97
61488;BME280;47351;53.326;-6.298;2022-08-01T10:24:22;101322.66;;;30.69;33.27
61488;BME280;47351;53.326;-6.298;2022-08-01T10:26:57;101320.75;;;31.38;33.29
61488;BME280;47351;53.326;-6.298;2022-08-01T10:29:43;101319.63;;;32.14;32.01
61488;BME280;47351;53.326;-6.298;2022-08-01T10:32:37;101316.31;;;31.86;31.60
61488;BME280;47351;53.326;-6.298;2022-08-01T10:35:10;101309.58;;;31.54;31.91
61488;BME280;47351;53.326;-6.298;2022-08-01T10:38:07;101302.85;;;31.69;31.82
61488;BME280;47351;53.326;-6.298;2022-08-01T10:40:43;101296.71;;;31.46;32.16
61488;BME280;47351;53.326;-6.298;2022-08-01T10:43:17;101296.34;;;31.22;32.58
61488;BME280;47351;53.326;-6.298;2022-08-01T10:45:51;101298.07;;;30.72;33.11
61488;BME280;47351;53.326;-6.298;2022-08-01T10:48:29;101292.90;;;30.01;33.25
61488;BME280;47351;53.326;-6.298;2022-08-01T10:51:05;101291.45;;;29.28;34.07
61488;BME280;47351;53.326;-6.298;2022-08-01T10:53:53;101292.13;;;28.69;34.83
61488;BME280;47351;53.326;-6.298;2022-08-01T10:56:40;101286.88;;;28.21;35.65
61488;BME280;47351;53.326;-6.298;2022-08-01T10:59:20;101275.23;;;28.05;36.24
61488;BME280;47351;53.326;-6.298;2022-08-01T11:02:30;101270.39;;;28.17;36.48
61488;BME280;47351;53.326;-6.298;2022-08-01T11:05:07;101266.73;;;28.27;36.71
61488;BME280;47351;53.326;-6.298;2022-08-01T11:07:52;101263.15;;;28.21;37.07
61488;BME280;47351;53.326;-6.298;2022-08-01T11:10:28;101264.55;;;27.99;37.23
61488;BME280;47351;53.326;-6.298;2022-08-01T11:13:03;101261.89;;;27.68;37.74
61488;BME280;47351;53.326;-6.298;2022-08-01T11:15:37;101262.92;;;27.50;38.11
61488;BME280;47351;53.326;-6.298;2022-08-01T11:18:32;101262.48;;;27.32;38.60
61488;BME280;47351;53.326;-6.298;2022-08-01T11:21:06;101259.55;;;27.13;39.28
61488;BME280;47351;53.326;-6.298;2022-08-01T11:23:58;101252.08;;;26.86;39.68
61488;BME280;47351;53.326;-6.298;2022-08-01T11:26:29;101249.15;;;26.45;40.22
61488;BME280;47351;53.326;-6.298;2022-08-01T11:29:18;101241.98;;;25.98;40.95
61488;BME280;47351;53.326;-6.298;2022-08-01T11:31:51;101246.11;;;25.60;42.13
61488;BME280;47351;53.326;-6.298;2022-08-01T11:34:55;101243.15;;;25.27;42.77
61488;BME280;47351;53.326;-6.298;2022-08-01T11:37:28;101244.71;;;24.91;43.45
61488;BME280;47351;53.326;-6.298;2022-08-01T11:40:20;101242.59;;;24.62;43.98
61488;BME280;47351;53.326;-6.298;2022-08-01T11:43:19;101241.09;;;24.34;44.93
61488;BME280;47351;53.326;-6.298;2022-08-01T11:45:54;101237.61;;;24.04;45.67
61488;BME280;47351;53.326;-6.298;2022-08-01T11:48:27;101231.19;;;23.84;46.50
61488;BME280;47351;53.326;-6.298;2022-08-01T11:50:59;101227.06;;;23.73;46.92
61488;BME280;47351;53.326;-6.298;2022-08-01T11:53:33;101231.63;;;23.67;47.85
61488;BME280;47351;53.326;-6.298;2022-08-01T11:56:13;101232.58;;;23.53;49.13
61488;BME280;47351;53.326;-6.298;2022-08-01T11:58:47;101228.84;;;23.37;50.10
61488;BME280;47351;53.326;-6.298;2022-08-01T12:01:22;101220.99;;;23.32;51.15
61488;BME280;47351;53.326;-6.298;2022-08-01T12:03:58;101217.92;;;23.33;51.50
61488;BME280;47351;53.326;-6.298;2022-08-01T12:06:30;101215.61;;;23.23;51.99
61488;BME280;47351;53.326;-6.298;2022-08-01T12:09:18;101216.39;;;23.08;52.25
61488;BME280;47351;53.326;-6.298;2022-08-01T12:11:50;101218.92;;;22.91;52.60
61488;BME280;47351;53.326;-6.298;2022-08-01T12:14:24;101215.11;;;22.90;52.61
61488;BME280;47351;53.326;-6.298;2022-08-01T12:16:57;101202.48;;;22.98;52.18
61488;BME280;47351;53.326;-6.298;2022-08-01T12:19:31;101199.80;;;23.13;51.87
61488;BME280;47351;53.326;-6.298;2022-08-01T12:22:11;101196.70;;;23.27;51.45
61488;BME280;47351;53.326;-6.298;2022-08-01T12:24:44;101191.80;;;23.43;51.46
61488;BME280;47351;53.326;-6.298;2022-08-01T12:27:28;101182.42;;;23.40;51.37
61488;BME280;47351;53.326;-6.298;2022-08-01T12:30:03;101176.17;;;23.30;51.54
61488;BME280;47351;53.326;-6.298;2022-08-01T12:32:37;101177.20;;;23.20;51.92
61488;BME280;47351;53.326;-6.298;2022-08-01T12:35:12;101173.77;;;23.13;51.96
61488;BME280;47351;53.326;-6.298;2022-08-01T12:37:48;101174.46;;;23.07;52.30
61488;BME280;47351;53.326;-6.298;2022-08-01T12:40:22;101170.36;;;23.03;52.46
61488;BME280;47351;53.326;-6.298;2022-08-01T12:42:55;101170.13;;;23.05;52.53
61488;BME280;47351;53.326;-6.298;2022-08-01T12:45:30;101164.45;;;23.12;52.54
61488;BME280;47351;53.326;-6.298;2022-08-01T12:48:05;101156.08;;;23.60;52.31
61488;BME280;47351;53.326;-6.298;2022-08-01T12:50:38;101151.61;;;24.16;51.61
61488;BME280;47351;53.326;-6.298;2022-08-01T12:53:14;101150.65;;;24.51;50.62
61488;BME280;47351;53.326;-6.298;2022-08-01T12:55:54;101146.48;;;24.74;50.34
61488;BME280;47351;53.326;-6.298;2022-08-01T12:58:33;101148.77;;;24.76;50.09
61488;BME280;47351;53.326;-6.298;2022-08-01T13:01:07;101142.42;;;24.54;50.06
61488;BME280;47351;53.326;-6.298;2022-08-01T13:04:01;101135.31;;;24.37;50.71
61488;BME280;47351;53.326;-6.298;2022-08-01T13:06:36;101126.90;;;24.42;51.05
61488;BME280;47351;53.326;-6.298;2022-08-01T13:09:08;101122.39;;;24.58;50.92
61488;BME280;47351;53.326;-6.298;2022-08-01T13:11:42;101113.98;;;24.64;50.81
61488;BME280;47351;53.326;-6.298;2022-08-01T13:14:33;101110.31;;;24.55;51.05
61488;BME280;47351;53.326;-6.298;2022-08-01T13:17:10;101124.55;;;24.46;51.31
61488;BME280;47351;53.326;-6.298;2022-08-01T13:19:45;101120.48;;;24.21;51.55
61488;BME280;47351;53.326;-6.298;2022-08-01T13:22:17;101115.80;;;23.87;52.40
61488;BME280;47351;53.326;-6.298;2022-08-01T13:24:49;101111.34;;;23.51;53.09
61488;BME280;47351;53.326;-6.298;2022-08-01T13:27:23;101112.77;;;23.24;54.04
61488;BME280;47351;53.326;-6.298;2022-08-01T13:30:25;101108.42;;;22.83;54.91
61488;BME280;47351;53.326;-6.298;2022-08-01T13:33:01;101114.20;;;22.51;55.70
61488;BME280;47351;53.326;-6.298;2022-08-01T13:35:41;101106.92;;;22.32;56.49
61488;BME280;47351;53.326;-6.298;2022-08-01T13:38:13;101104.36;;;22.15;56.74
61488;BME280;47351;53.326;-6.298;2022-08-01T13:40:46;101108.42;;;22.09;57.39
61488;BME280;47351;53.326;-6.298;2022-08-01T13:43:24;101114.05;;;22.08;57.60
61488;BME280;47351;53.326;-6.298;2022-08-01T13:46:19;101105.40;;;22.08;57.98